Nickajack Observed Data For Previous 48 Hours

Caption
Day and Hour Reservoir Elevation (behind dam)* Tailwater Elevation (below dam)* Average Hourly Discharge*
1/16/2018 1 AM CST 633.83 595.12 22,130
1/16/2018 2 AM CST 633.68 595.11 22,113
1/16/2018 3 AM CST 633.57 595.07 22,157
1/16/2018 4 AM CST 633.42 595.12 22,317
1/16/2018 5 AM CST 633.29 595.15 22,935
1/16/2018 6 AM CST 633.11 595.73 32,353
1/16/2018 7 AM CST 633.01 595.90 32,755
1/16/2018 8 AM CST 632.86 596.07 32,587
1/16/2018 9 AM CST 632.67 596.16 33,243
1/16/2018 10 AM CST 632.73 596.18 33,401
1/16/2018 11 AM CST 632.86 595.61 23,511
1/16/2018 12 PM CST 632.93 595.43 22,533
1/16/2018 1 PM CST 633.05 595.28 22,909
1/16/2018 2 PM CST 633.07 595.19 22,719
1/16/2018 3 PM CST 633.15 595.10 22,268
1/16/2018 4 PM CST 633.22 595.10 22,414
1/16/2018 5 PM CST 633.15 595.22 23,383
1/16/2018 6 PM CST 633.14 596.35 42,611
1/16/2018 7 PM CST 633.13 596.70 42,779
1/16/2018 8 PM CST 633.06 596.93 42,686
1/16/2018 9 PM CST 633.07 597.06 42,620
1/16/2018 10 PM CST 633.12 596.51 33,016
1/16/2018 11 PM CST 633.25 595.79 22,961
1/17/2018 12 AM CST 633.20 595.61 23,342
1/17/2018 1 AM CST 633.12 596.67 42,758
1/17/2018 2 AM CST 633.09 596.81 42,871
1/17/2018 3 AM CST 632.94 596.95 42,816
1/17/2018 4 AM CST 632.90 597.01 42,734
1/17/2018 5 AM CST 632.81 597.09 42,680
1/17/2018 6 AM CST 632.73 597.11 42,620
1/17/2018 7 AM CST 632.69 597.13 42,636
1/17/2018 8 AM CST 632.80 597.21 42,667
1/17/2018 9 AM CST 632.85 597.22 42,748
1/17/2018 10 AM CST 632.98 597.23 42,703
1/17/2018 11 AM CST 633.03 597.25 42,715
1/17/2018 12 PM CST 633.04 597.24 42,739
1/17/2018 1 PM CST 633.09 597.22 42,743
1/17/2018 2 PM CST 633.00 597.21 42,761
1/17/2018 3 PM CST 632.85 597.23 42,652
1/17/2018 4 PM CST 632.76 597.12 41,448
1/17/2018 5 PM CST 632.69 596.72 34,625
1/17/2018 6 PM CST 632.69 596.70 35,119
1/17/2018 7 PM CST 632.75 597.00 42,876
1/17/2018 8 PM CST 632.77 597.14 42,806
1/17/2018 9 PM CST 632.77 597.18 42,757
1/17/2018 10 PM CST 632.75 597.24 42,778
1/17/2018 11 PM CST 632.89 596.91 34,047
1/18/2018 12 AM CST 633.16 596.09 24,304
1/18/2018 1 AM CST 633.28 595.72 23,461
1/18/2018 2 AM CST 633.30 595.53 22,997
1/18/2018 3 AM CST 633.26 595.41 22,760
1/18/2018 4 AM CST 633.23 595.31 22,706
1/18/2018 5 AM CST 633.21 595.31 22,829

Elevations are in feet above sea level. Discharges are in cubic feet per second and are reported at the end of the hour.